sensor_id;sensor_type;location;lat;lon;timestamp;P1;durP1;ratioP1;P2;durP2;ratioP2
61523;SDS011;47393;38.758;-9.164;2023-03-11T00:00:54;3.05;;;2.83;;
61523;SDS011;47393;38.758;-9.164;2023-03-11T00:02:58;3.60;;;3.30;;
61523;SDS011;47393;38.758;-9.164;2023-03-11T00:05:01;3.73;;;3.43;;
61523;SDS011;47393;38.758;-9.164;2023-03-11T00:07:04;4.53;;;3.67;;
61523;SDS011;47393;38.758;-9.164;2023-03-11T00:09:05;4.55;;;3.83;;
61523;SDS011;47393;38.758;-9.164;2023-03-11T00:11:07;4.13;;;3.90;;
61523;SDS011;47393;38.758;-9.164;2023-03-11T00:13:09;6.32;;;4.25;;
61523;SDS011;47393;38.758;-9.164;2023-03-11T00:15:10;5.38;;;4.70;;
61523;SDS011;47393;38.758;-9.164;2023-03-11T00:17:11;6.55;;;3.90;;
61523;SDS011;47393;38.758;-9.164;2023-03-11T00:19:13;7.22;;;5.05;;
61523;SDS011;47393;38.758;-9.164;2023-03-11T00:21:14;5.90;;;5.30;;
61523;SDS011;47393;38.758;-9.164;2023-03-11T00:23:16;9.60;;;5.60;;
61523;SDS011;47393;38.758;-9.164;2023-03-11T00:25:18;7.72;;;5.13;;
61523;SDS011;47393;38.758;-9.164;2023-03-11T00:27:20;7.00;;;5.60;;
61523;SDS011;47393;38.758;-9.164;2023-03-11T00:29:20;8.27;;;5.72;;
61523;SDS011;47393;38.758;-9.164;2023-03-11T00:31:21;7.38;;;5.80;;
61523;SDS011;47393;38.758;-9.164;2023-03-11T00:33:22;5.38;;;4.88;;
61523;SDS011;47393;38.758;-9.164;2023-03-11T00:35:24;8.88;;;5.75;;
61523;SDS011;47393;38.758;-9.164;2023-03-11T00:37:25;9.27;;;6.07;;
61523;SDS011;47393;38.758;-9.164;2023-03-11T00:39:32;5.63;;;5.18;;
61523;SDS011;47393;38.758;-9.164;2023-03-11T00:41:33;7.05;;;5.63;;
61523;SDS011;47393;38.758;-9.164;2023-03-11T00:43:37;7.65;;;6.05;;
61523;SDS011;47393;38.758;-9.164;2023-03-11T00:45:46;8.85;;;6.18;;
61523;SDS011;47393;38.758;-9.164;2023-03-11T00:47:55;13.63;;;5.47;;
61523;SDS011;47393;38.758;-9.164;2023-03-11T00:49:56;8.05;;;5.35;;
61523;SDS011;47393;38.758;-9.164;2023-03-11T00:52:10;5.18;;;4.68;;
61523;SDS011;47393;38.758;-9.164;2023-03-11T00:54:11;5.90;;;5.20;;
61523;SDS011;47393;38.758;-9.164;2023-03-11T00:56:17;7.97;;;5.35;;
61523;SDS011;47393;38.758;-9.164;2023-03-11T00:58:18;8.15;;;5.90;;
61523;SDS011;47393;38.758;-9.164;2023-03-11T01:00:28;7.45;;;6.03;;
61523;SDS011;47393;38.758;-9.164;2023-03-11T01:02:33;9.07;;;6.20;;
61523;SDS011;47393;38.758;-9.164;2023-03-11T01:04:37;11.50;;;6.32;;
61523;SDS011;47393;38.758;-9.164;2023-03-11T01:06:42;8.43;;;6.20;;
61523;SDS011;47393;38.758;-9.164;2023-03-11T01:08:45;12.25;;;6.88;;
61523;SDS011;47393;38.758;-9.164;2023-03-11T01:10:51;8.57;;;5.55;;
61523;SDS011;47393;38.758;-9.164;2023-03-11T01:12:53;6.13;;;4.35;;
61523;SDS011;47393;38.758;-9.164;2023-03-11T01:14:56;7.03;;;4.70;;
61523;SDS011;47393;38.758;-9.164;2023-03-11T01:16:58;9.93;;;5.70;;
61523;SDS011;47393;38.758;-9.164;2023-03-11T01:18:59;9.82;;;5.65;;
61523;SDS011;47393;38.758;-9.164;2023-03-11T01:21:09;7.28;;;5.65;;
61523;SDS011;47393;38.758;-9.164;2023-03-11T01:23:10;9.77;;;5.90;;
61523;SDS011;47393;38.758;-9.164;2023-03-11T01:25:14;12.15;;;6.60;;
61523;SDS011;47393;38.758;-9.164;2023-03-11T01:27:16;14.73;;;6.82;;
61523;SDS011;47393;38.758;-9.164;2023-03-11T01:29:17;11.40;;;7.47;;
61523;SDS011;47393;38.758;-9.164;2023-03-11T01:31:18;11.25;;;7.28;;
61523;SDS011;47393;38.758;-9.164;2023-03-11T01:33:19;18.70;;;8.77;;
61523;SDS011;47393;38.758;-9.164;2023-03-11T01:35:23;22.13;;;9.88;;
61523;SDS011;47393;38.758;-9.164;2023-03-11T01:37:34;19.52;;;9.48;;
61523;SDS011;47393;38.758;-9.164;2023-03-11T01:39:36;27.33;;;10.88;;
61523;SDS011;47393;38.758;-9.164;2023-03-11T01:41:37;25.02;;;10.57;;
61523;SDS011;47393;38.758;-9.164;2023-03-11T01:47:51;25.38;;;11.43;;
61523;SDS011;47393;38.758;-9.164;2023-03-11T01:49:53;30.13;;;11.75;;
61523;SDS011;47393;38.758;-9.164;2023-03-11T01:51:55;23.13;;;11.27;;
61523;SDS011;47393;38.758;-9.164;2023-03-11T01:53:58;20.33;;;9.57;;
61523;SDS011;47393;38.758;-9.164;2023-03-11T01:56:00;27.10;;;11.63;;
61523;SDS011;47393;38.758;-9.164;2023-03-11T01:58:02;22.90;;;11.27;;
61523;SDS011;47393;38.758;-9.164;2023-03-11T02:00:09;19.70;;;10.35;;
61523;SDS011;47393;38.758;-9.164;2023-03-11T02:04:19;21.10;;;13.00;;
61523;SDS011;47393;38.758;-9.164;2023-03-11T02:06:22;22.23;;;11.18;;
61523;SDS011;47393;38.758;-9.164;2023-03-11T02:08:27;22.33;;;11.88;;
61523;SDS011;47393;38.758;-9.164;2023-03-11T02:10:30;22.33;;;11.80;;
61523;SDS011;47393;38.758;-9.164;2023-03-11T02:12:33;23.35;;;12.40;;
61523;SDS011;47393;38.758;-9.164;2023-03-11T02:14:35;19.58;;;11.85;;
61523;SDS011;47393;38.758;-9.164;2023-03-11T02:16:37;21.85;;;11.25;;
61523;SDS011;47393;38.758;-9.164;2023-03-11T02:18:41;20.00;;;11.75;;
61523;SDS011;47393;38.758;-9.164;2023-03-11T02:20:51;23.63;;;11.50;;
61523;SDS011;47393;38.758;-9.164;2023-03-11T02:22:54;19.17;;;10.98;;
61523;SDS011;47393;38.758;-9.164;2023-03-11T02:25:13;16.23;;;11.65;;
61523;SDS011;47393;38.758;-9.164;2023-03-11T02:27:17;14.18;;;8.52;;
61523;SDS011;47393;38.758;-9.164;2023-03-11T02:29:23;16.55;;;10.93;;
61523;SDS011;47393;38.758;-9.164;2023-03-11T02:31:25;15.70;;;9.25;;
61523;SDS011;47393;38.758;-9.164;2023-03-11T02:33:27;17.55;;;9.18;;
61523;SDS011;47393;38.758;-9.164;2023-03-11T02:35:29;9.48;;;8.07;;
61523;SDS011;47393;38.758;-9.164;2023-03-11T02:37:42;10.27;;;6.97;;
61523;SDS011;47393;38.758;-9.164;2023-03-11T02:40:08;10.15;;;7.10;;
61523;SDS011;47393;38.758;-9.164;2023-03-11T02:42:25;6.88;;;6.18;;
61523;SDS011;47393;38.758;-9.164;2023-03-11T02:44:38;9.18;;;6.93;;
61523;SDS011;47393;38.758;-9.164;2023-03-11T02:46:51;7.22;;;5.75;;
61523;SDS011;47393;38.758;-9.164;2023-03-11T02:48:57;11.18;;;5.53;;
61523;SDS011;47393;38.758;-9.164;2023-03-11T02:51:10;8.23;;;5.40;;
61523;SDS011;47393;38.758;-9.164;2023-03-11T02:53:11;9.23;;;5.85;;
61523;SDS011;47393;38.758;-9.164;2023-03-11T02:55:12;8.00;;;5.78;;
61523;SDS011;47393;38.758;-9.164;2023-03-11T02:57:15;8.00;;;5.40;;
61523;SDS011;47393;38.758;-9.164;2023-03-11T02:59:18;9.25;;;5.22;;
61523;SDS011;47393;38.758;-9.164;2023-03-11T03:01:22;9.27;;;5.10;;
61523;SDS011;47393;38.758;-9.164;2023-03-11T03:03:24;8.07;;;4.55;;
61523;SDS011;47393;38.758;-9.164;2023-03-11T03:05:24;11.95;;;5.05;;
61523;SDS011;47393;38.758;-9.164;2023-03-11T03:07:28;7.38;;;5.13;;
61523;SDS011;47393;38.758;-9.164;2023-03-11T03:09:29;7.20;;;5.63;;
61523;SDS011;47393;38.758;-9.164;2023-03-11T03:11:30;7.45;;;5.05;;
61523;SDS011;47393;38.758;-9.164;2023-03-11T03:13:31;10.80;;;4.97;;
61523;SDS011;47393;38.758;-9.164;2023-03-11T03:15:55;6.55;;;4.57;;
61523;SDS011;47393;38.758;-9.164;2023-03-11T03:18:07;7.40;;;4.22;;
61523;SDS011;47393;38.758;-9.164;2023-03-11T03:20:09;5.55;;;5.10;;
61523;SDS011;47393;38.758;-9.164;2023-03-11T03:24:37;6.22;;;4.50;;
61523;SDS011;47393;38.758;-9.164;2023-03-11T03:27:33;4.65;;;4.22;;
61523;SDS011;47393;38.758;-9.164;2023-03-11T03:29:44;7.68;;;4.68;;
61523;SDS011;47393;38.758;-9.164;2023-03-11T03:31:46;5.38;;;4.47;;
61523;SDS011;47393;38.758;-9.164;2023-03-11T03:37:23;8.60;;;4.45;;
61523;SDS011;47393;38.758;-9.164;2023-03-11T03:39:12;6.43;;;4.43;;
61523;SDS011;47393;38.758;-9.164;2023-03-11T03:41:28;15.23;;;4.50;;
61523;SDS011;47393;38.758;-9.164;2023-03-11T03:43:30;5.78;;;3.95;;
61523;SDS011;47393;38.758;-9.164;2023-03-11T03:45:31;4.53;;;3.55;;
61523;SDS011;47393;38.758;-9.164;2023-03-11T03:47:32;12.82;;;4.20;;
61523;SDS011;47393;38.758;-9.164;2023-03-11T03:49:33;8.80;;;4.10;;
61523;SDS011;47393;38.758;-9.164;2023-03-11T03:51:42;6.82;;;3.60;;
61523;SDS011;47393;38.758;-9.164;2023-03-11T03:53:53;9.15;;;4.45;;
61523;SDS011;47393;38.758;-9.164;2023-03-11T03:55:54;3.50;;;3.20;;
61523;SDS011;47393;38.758;-9.164;2023-03-11T03:57:56;4.18;;;3.25;;
61523;SDS011;47393;38.758;-9.164;2023-03-11T04:00:01;7.05;;;3.80;;
61523;SDS011;47393;38.758;-9.164;2023-03-11T04:02:14;6.32;;;3.53;;
61523;SDS011;47393;38.758;-9.164;2023-03-11T04:04:14;9.38;;;4.25;;
61523;SDS011;47393;38.758;-9.164;2023-03-11T04:06:22;7.93;;;3.33;;
61523;SDS011;47393;38.758;-9.164;2023-03-11T04:08:29;4.22;;;3.60;;
61523;SDS011;47393;38.758;-9.164;2023-03-11T04:10:30;5.43;;;4.03;;
61523;SDS011;47393;38.758;-9.164;2023-03-11T04:12:32;7.50;;;3.72;;
61523;SDS011;47393;38.758;-9.164;2023-03-11T04:14:34;10.70;;;4.55;;
61523;SDS011;47393;38.758;-9.164;2023-03-11T04:16:37;9.35;;;3.72;;
61523;SDS011;47393;38.758;-9.164;2023-03-11T04:18:42;12.70;;;4.85;;
61523;SDS011;47393;38.758;-9.164;2023-03-11T04:20:43;6.28;;;3.95;;
61523;SDS011;47393;38.758;-9.164;2023-03-11T04:22:47;6.28;;;3.90;;
61523;SDS011;47393;38.758;-9.164;2023-03-11T04:24:48;11.02;;;5.32;;
61523;SDS011;47393;38.758;-9.164;2023-03-11T04:26:53;13.98;;;4.22;;
61523;SDS011;47393;38.758;-9.164;2023-03-11T04:28:55;8.40;;;4.03;;
61523;SDS011;47393;38.758;-9.164;2023-03-11T04:30:57;9.27;;;4.65;;
61523;SDS011;47393;38.758;-9.164;2023-03-11T04:33:01;8.10;;;4.22;;
61523;SDS011;47393;38.758;-9.164;2023-03-11T04:35:04;4.43;;;4.00;;
61523;SDS011;47393;38.758;-9.164;2023-03-11T04:37:05;9.85;;;5.60;;
61523;SDS011;47393;38.758;-9.164;2023-03-11T04:39:08;10.93;;;4.85;;
61523;SDS011;47393;38.758;-9.164;2023-03-11T04:41:14;7.10;;;3.88;;
61523;SDS011;47393;38.758;-9.164;2023-03-11T04:43:16;8.32;;;3.72;;
61523;SDS011;47393;38.758;-9.164;2023-03-11T04:45:19;10.73;;;3.95;;
61523;SDS011;47393;38.758;-9.164;2023-03-11T04:47:21;6.22;;;4.53;;
61523;SDS011;47393;38.758;-9.164;2023-03-11T04:49:22;7.63;;;3.83;;
61523;SDS011;47393;38.758;-9.164;2023-03-11T04:51:25;6.43;;;3.67;;
61523;SDS011;47393;38.758;-9.164;2023-03-11T04:53:27;5.75;;;3.75;;
61523;SDS011;47393;38.758;-9.164;2023-03-11T04:55:31;8.65;;;4.72;;
61523;SDS011;47393;38.758;-9.164;2023-03-11T04:57:33;8.30;;;3.97;;
61523;SDS011;47393;38.758;-9.164;2023-03-11T04:59:35;6.45;;;4.13;;
61523;SDS011;47393;38.758;-9.164;2023-03-11T05:01:36;4.15;;;3.75;;
61523;SDS011;47393;38.758;-9.164;2023-03-11T05:03:39;6.35;;;5.15;;
61523;SDS011;47393;38.758;-9.164;2023-03-11T05:05:41;12.52;;;5.97;;
61523;SDS011;47393;38.758;-9.164;2023-03-11T05:07:42;7.05;;;4.90;;
61523;SDS011;47393;38.758;-9.164;2023-03-11T05:09:44;13.43;;;6.85;;
61523;SDS011;47393;38.758;-9.164;2023-03-11T05:11:45;8.98;;;5.30;;
61523;SDS011;47393;38.758;-9.164;2023-03-11T05:13:48;12.45;;;5.30;;
61523;SDS011;47393;38.758;-9.164;2023-03-11T05:15:49;9.07;;;5.82;;
61523;SDS011;47393;38.758;-9.164;2023-03-11T05:17:50;9.85;;;5.38;;
61523;SDS011;47393;38.758;-9.164;2023-03-11T05:19:52;9.80;;;5.55;;
61523;SDS011;47393;38.758;-9.164;2023-03-11T05:22:01;14.05;;;5.90;;
61523;SDS011;47393;38.758;-9.164;2023-03-11T05:24:03;9.18;;;5.93;;
61523;SDS011;47393;38.758;-9.164;2023-03-11T05:26:04;6.70;;;5.45;;
61523;SDS011;47393;38.758;-9.164;2023-03-11T05:28:10;7.70;;;5.57;;
61523;SDS011;47393;38.758;-9.164;2023-03-11T05:30:15;6.25;;;5.50;;
61523;SDS011;47393;38.758;-9.164;2023-03-11T05:32:18;11.52;;;5.32;;
61523;SDS011;47393;38.758;-9.164;2023-03-11T05:34:20;9.02;;;5.15;;
61523;SDS011;47393;38.758;-9.164;2023-03-11T05:36:21;7.18;;;5.28;;
61523;SDS011;47393;38.758;-9.164;2023-03-11T05:38:22;6.63;;;4.82;;
61523;SDS011;47393;38.758;-9.164;2023-03-11T05:40:23;9.70;;;5.47;;
61523;SDS011;47393;38.758;-9.164;2023-03-11T05:42:27;10.15;;;5.72;;
61523;SDS011;47393;38.758;-9.164;2023-03-11T05:44:30;11.35;;;6.88;;
61523;SDS011;47393;38.758;-9.164;2023-03-11T05:46:31;11.68;;;6.85;;
61523;SDS011;47393;38.758;-9.164;2023-03-11T05:48:33;9.55;;;5.55;;
61523;SDS011;47393;38.758;-9.164;2023-03-11T05:50:36;7.75;;;5.43;;
61523;SDS011;47393;38.758;-9.164;2023-03-11T05:52:37;6.47;;;5.03;;
61523;SDS011;47393;38.758;-9.164;2023-03-11T05:54:38;8.02;;;5.68;;
61523;SDS011;47393;38.758;-9.164;2023-03-11T05:56:40;21.17;;;7.50;;
61523;SDS011;47393;38.758;-9.164;2023-03-11T05:58:41;10.52;;;6.78;;
61523;SDS011;47393;38.758;-9.164;2023-03-11T06:00:41;10.20;;;7.07;;
61523;SDS011;47393;38.758;-9.164;2023-03-11T06:02:42;9.75;;;7.22;;
61523;SDS011;47393;38.758;-9.164;2023-03-11T06:04:46;10.82;;;8.77;;
61523;SDS011;47393;38.758;-9.164;2023-03-11T06:06:49;14.50;;;8.55;;
61523;SDS011;47393;38.758;-9.164;2023-03-11T06:08:53;7.63;;;6.82;;
61523;SDS011;47393;38.758;-9.164;2023-03-11T06:11:05;16.77;;;8.18;;
61523;SDS011;47393;38.758;-9.164;2023-03-11T06:13:07;12.98;;;7.90;;
61523;SDS011;47393;38.758;-9.164;2023-03-11T06:15:16;13.60;;;7.78;;
61523;SDS011;47393;38.758;-9.164;2023-03-11T06:17:17;10.15;;;8.63;;
61523;SDS011;47393;38.758;-9.164;2023-03-11T06:19:18;16.92;;;9.05;;
61523;SDS011;47393;38.758;-9.164;2023-03-11T06:21:23;15.38;;;9.27;;
61523;SDS011;47393;38.758;-9.164;2023-03-11T06:23:27;15.60;;;12.35;;
61523;SDS011;47393;38.758;-9.164;2023-03-11T06:25:28;15.75;;;10.30;;
61523;SDS011;47393;38.758;-9.164;2023-03-11T06:27:35;13.55;;;9.57;;
61523;SDS011;47393;38.758;-9.164;2023-03-11T06:29:39;17.63;;;9.43;;
61523;SDS011;47393;38.758;-9.164;2023-03-11T06:31:43;15.43;;;9.90;;
61523;SDS011;47393;38.758;-9.164;2023-03-11T06:33:46;26.15;;;10.95;;
61523;SDS011;47393;38.758;-9.164;2023-03-11T06:35:59;23.83;;;10.55;;
61523;SDS011;47393;38.758;-9.164;2023-03-11T06:40:28;16.70;;;9.73;;
61523;SDS011;47393;38.758;-9.164;2023-03-11T06:42:31;24.53;;;11.17;;
61523;SDS011;47393;38.758;-9.164;2023-03-11T06:44:46;17.00;;;11.30;;
61523;SDS011;47393;38.758;-9.164;2023-03-11T06:46:51;20.98;;;11.25;;
61523;SDS011;47393;38.758;-9.164;2023-03-11T06:48:53;19.50;;;11.40;;
61523;SDS011;47393;38.758;-9.164;2023-03-11T06:50:57;18.55;;;11.23;;
61523;SDS011;47393;38.758;-9.164;2023-03-11T06:53:00;24.33;;;10.65;;
61523;SDS011;47393;38.758;-9.164;2023-03-11T06:55:08;21.90;;;12.40;;
61523;SDS011;47393;38.758;-9.164;2023-03-11T06:57:17;23.77;;;11.02;;
61523;SDS011;47393;38.758;-9.164;2023-03-11T06:59:28;23.00;;;10.77;;
61523;SDS011;47393;38.758;-9.164;2023-03-11T07:01:39;18.75;;;11.23;;
61523;SDS011;47393;38.758;-9.164;2023-03-11T07:03:47;20.52;;;12.13;;
61523;SDS011;47393;38.758;-9.164;2023-03-11T07:05:49;30.40;;;13.23;;
61523;SDS011;47393;38.758;-9.164;2023-03-11T07:08:02;23.75;;;12.23;;
61523;SDS011;47393;38.758;-9.164;2023-03-11T07:10:12;26.77;;;12.82;;
61523;SDS011;47393;38.758;-9.164;2023-03-11T07:12:18;28.50;;;14.05;;
61523;SDS011;47393;38.758;-9.164;2023-03-11T07:14:25;25.40;;;13.45;;
61523;SDS011;47393;38.758;-9.164;2023-03-11T07:16:29;19.88;;;14.10;;
61523;SDS011;47393;38.758;-9.164;2023-03-11T07:18:39;23.30;;;13.05;;
61523;SDS011;47393;38.758;-9.164;2023-03-11T07:20:41;29.20;;;13.30;;
61523;SDS011;47393;38.758;-9.164;2023-03-11T07:22:42;27.33;;;15.32;;
61523;SDS011;47393;38.758;-9.164;2023-03-11T07:24:47;27.67;;;14.50;;
61523;SDS011;47393;38.758;-9.164;2023-03-11T07:26:48;25.48;;;14.25;;
61523;SDS011;47393;38.758;-9.164;2023-03-11T07:28:58;27.42;;;12.23;;
61523;SDS011;47393;38.758;-9.164;2023-03-11T07:31:08;24.45;;;13.35;;
61523;SDS011;47393;38.758;-9.164;2023-03-11T07:33:13;28.75;;;12.85;;
61523;SDS011;47393;38.758;-9.164;2023-03-11T07:35:29;30.85;;;18.17;;
61523;SDS011;47393;38.758;-9.164;2023-03-11T07:37:37;26.02;;;12.82;;
61523;SDS011;47393;38.758;-9.164;2023-03-11T07:39:41;24.58;;;11.60;;
61523;SDS011;47393;38.758;-9.164;2023-03-11T07:41:42;17.92;;;12.10;;
61523;SDS011;47393;38.758;-9.164;2023-03-11T07:43:45;28.88;;;16.42;;
61523;SDS011;47393;38.758;-9.164;2023-03-11T07:45:51;28.30;;;16.05;;
61523;SDS011;47393;38.758;-9.164;2023-03-11T07:48:05;22.27;;;13.30;;
61523;SDS011;47393;38.758;-9.164;2023-03-11T07:50:09;20.08;;;12.13;;
61523;SDS011;47393;38.758;-9.164;2023-03-11T07:52:10;28.10;;;12.30;;
61523;SDS011;47393;38.758;-9.164;2023-03-11T07:54:13;28.95;;;17.00;;
61523;SDS011;47393;38.758;-9.164;2023-03-11T07:56:15;27.83;;;15.75;;
61523;SDS011;47393;38.758;-9.164;2023-03-11T07:58:16;21.38;;;12.13;;
61523;SDS011;47393;38.758;-9.164;2023-03-11T08:00:17;20.50;;;12.80;;
61523;SDS011;47393;38.758;-9.164;2023-03-11T08:02:18;18.38;;;12.13;;
61523;SDS011;47393;38.758;-9.164;2023-03-11T08:04:19;14.65;;;10.48;;
61523;SDS011;47393;38.758;-9.164;2023-03-11T08:06:22;24.88;;;14.82;;
61523;SDS011;47393;38.758;-9.164;2023-03-11T08:08:23;20.50;;;13.57;;
61523;SDS011;47393;38.758;-9.164;2023-03-11T08:10:25;17.48;;;10.73;;
61523;SDS011;47393;38.758;-9.164;2023-03-11T08:12:27;21.88;;;11.13;;
61523;SDS011;47393;38.758;-9.164;2023-03-11T08:14:28;16.63;;;11.27;;
61523;SDS011;47393;38.758;-9.164;2023-03-11T08:16:29;19.50;;;12.27;;
61523;SDS011;47393;38.758;-9.164;2023-03-11T08:18:31;15.98;;;11.05;;
61523;SDS011;47393;38.758;-9.164;2023-03-11T08:20:31;16.35;;;10.20;;
61523;SDS011;47393;38.758;-9.164;2023-03-11T08:22:32;16.58;;;9.80;;
61523;SDS011;47393;38.758;-9.164;2023-03-11T08:24:33;17.00;;;9.48;;
61523;SDS011;47393;38.758;-9.164;2023-03-11T08:26:36;14.02;;;7.53;;
61523;SDS011;47393;38.758;-9.164;2023-03-11T08:28:39;15.05;;;8.75;;
61523;SDS011;47393;38.758;-9.164;2023-03-11T08:30:40;6.78;;;5.90;;
61523;SDS011;47393;38.758;-9.164;2023-03-11T08:32:41;11.10;;;9.20;;
61523;SDS011;47393;38.758;-9.164;2023-03-11T08:34:42;21.58;;;12.70;;
61523;SDS011;47393;38.758;-9.164;2023-03-11T08:36:43;16.38;;;12.15;;
61523;SDS011;47393;38.758;-9.164;2023-03-11T08:38:43;17.10;;;11.70;;
61523;SDS011;47393;38.758;-9.164;2023-03-11T08:40:45;16.77;;;12.13;;
61523;SDS011;47393;38.758;-9.164;2023-03-11T08:42:46;16.02;;;11.18;;
61523;SDS011;47393;38.758;-9.164;2023-03-11T08:44:47;15.93;;;11.15;;
61523;SDS011;47393;38.758;-9.164;2023-03-11T08:46:47;15.70;;;10.98;;
61523;SDS011;47393;38.758;-9.164;2023-03-11T08:48:49;15.52;;;9.55;;
61523;SDS011;47393;38.758;-9.164;2023-03-11T08:50:50;15.43;;;10.38;;
61523;SDS011;47393;38.758;-9.164;2023-03-11T08:52:51;16.00;;;11.20;;
61523;SDS011;47393;38.758;-9.164;2023-03-11T08:54:55;12.68;;;10.63;;
61523;SDS011;47393;38.758;-9.164;2023-03-11T08:56:56;9.55;;;8.48;;
61523;SDS011;47393;38.758;-9.164;2023-03-11T08:59:00;10.75;;;8.15;;
61523;SDS011;47393;38.758;-9.164;2023-03-11T09:01:01;11.57;;;8.77;;
61523;SDS011;47393;38.758;-9.164;2023-03-11T09:03:26;12.68;;;9.52;;
61523;SDS011;47393;38.758;-9.164;2023-03-11T09:05:31;55.03;;;49.05;;
61523;SDS011;47393;38.758;-9.164;2023-03-11T09:07:33;29.63;;;23.20;;
61523;SDS011;47393;38.758;-9.164;2023-03-11T09:09:34;12.93;;;11.25;;
61523;SDS011;47393;38.758;-9.164;2023-03-11T09:11:35;16.67;;;10.27;;
61523;SDS011;47393;38.758;-9.164;2023-03-11T09:13:36;11.85;;;10.13;;
61523;SDS011;47393;38.758;-9.164;2023-03-11T09:17:52;17.58;;;12.00;;
61523;SDS011;47393;38.758;-9.164;2023-03-11T09:19:54;14.32;;;10.80;;
61523;SDS011;47393;38.758;-9.164;2023-03-11T09:21:58;16.38;;;11.60;;
61523;SDS011;47393;38.758;-9.164;2023-03-11T09:24:00;15.73;;;11.07;;
61523;SDS011;47393;38.758;-9.164;2023-03-11T09:26:03;12.20;;;9.80;;
61523;SDS011;47393;38.758;-9.164;2023-03-11T09:28:05;12.57;;;9.80;;
61523;SDS011;47393;38.758;-9.164;2023-03-11T09:30:08;10.70;;;9.63;;
61523;SDS011;47393;38.758;-9.164;2023-03-11T09:32:12;11.60;;;10.50;;
61523;SDS011;47393;38.758;-9.164;2023-03-11T09:34:14;12.32;;;8.77;;
61523;SDS011;47393;38.758;-9.164;2023-03-11T09:36:15;9.00;;;7.72;;
61523;SDS011;47393;38.758;-9.164;2023-03-11T09:38:17;10.60;;;6.90;;
61523;SDS011;47393;38.758;-9.164;2023-03-11T09:40:19;7.47;;;6.68;;
61523;SDS011;47393;38.758;-9.164;2023-03-11T09:42:36;13.90;;;7.13;;
61523;SDS011;47393;38.758;-9.164;2023-03-11T09:44:44;10.70;;;6.35;;
61523;SDS011;47393;38.758;-9.164;2023-03-11T09:49:08;10.18;;;7.55;;
61523;SDS011;47393;38.758;-9.164;2023-03-11T09:51:16;11.07;;;8.27;;
61523;SDS011;47393;38.758;-9.164;2023-03-11T09:55:37;9.52;;;6.40;;
61523;SDS011;47393;38.758;-9.164;2023-03-11T09:57:43;8.10;;;6.32;;
61523;SDS011;47393;38.758;-9.164;2023-03-11T09:59:44;14.10;;;7.10;;
61523;SDS011;47393;38.758;-9.164;2023-03-11T10:01:46;8.23;;;7.35;;
61523;SDS011;47393;38.758;-9.164;2023-03-11T10:03:49;10.70;;;7.28;;
61523;SDS011;47393;38.758;-9.164;2023-03-11T10:05:53;10.13;;;6.43;;
61523;SDS011;47393;38.758;-9.164;2023-03-11T10:10:29;9.52;;;6.20;;
61523;SDS011;47393;38.758;-9.164;2023-03-11T10:12:51;9.02;;;6.72;;
61523;SDS011;47393;38.758;-9.164;2023-03-11T10:26:25;10.43;;;8.57;;
61523;SDS011;47393;38.758;-9.164;2023-03-11T10:29:14;10.40;;;8.25;;
61523;SDS011;47393;38.758;-9.164;2023-03-11T10:35:24;6.85;;;5.80;;
61523;SDS011;47393;38.758;-9.164;2023-03-11T10:37:28;8.95;;;8.02;;
61523;SDS011;47393;38.758;-9.164;2023-03-11T10:39:31;10.18;;;5.07;;
61523;SDS011;47393;38.758;-9.164;2023-03-11T10:41:48;11.23;;;5.63;;
61523;SDS011;47393;38.758;-9.164;2023-03-11T10:43:53;4.75;;;4.13;;
61523;SDS011;47393;38.758;-9.164;2023-03-11T10:45:57;7.38;;;4.13;;
61523;SDS011;47393;38.758;-9.164;2023-03-11T10:48:00;9.65;;;3.90;;
61523;SDS011;47393;38.758;-9.164;2023-03-11T10:50:04;7.35;;;3.58;;
61523;SDS011;47393;38.758;-9.164;2023-03-11T10:52:16;11.07;;;3.40;;
61523;SDS011;47393;38.758;-9.164;2023-03-11T10:56:32;4.03;;;3.50;;
61523;SDS011;47393;38.758;-9.164;2023-03-11T10:58:36;12.23;;;4.10;;
61523;SDS011;47393;38.758;-9.164;2023-03-11T11:01:18;4.15;;;3.72;;
61523;SDS011;47393;38.758;-9.164;2023-03-11T11:03:25;8.15;;;3.78;;
61523;SDS011;47393;38.758;-9.164;2023-03-11T11:05:29;7.82;;;4.05;;
61523;SDS011;47393;38.758;-9.164;2023-03-11T11:07:45;6.78;;;2.50;;
61523;SDS011;47393;38.758;-9.164;2023-03-11T11:09:47;9.02;;;3.47;;
61523;SDS011;47393;38.758;-9.164;2023-03-11T11:12:05;5.43;;;3.38;;
61523;SDS011;47393;38.758;-9.164;2023-03-11T11:14:21;4.25;;;3.15;;
61523;SDS011;47393;38.758;-9.164;2023-03-11T11:16:22;6.30;;;3.30;;
61523;SDS011;47393;38.758;-9.164;2023-03-11T11:33:55;5.45;;;3.38;;
61523;SDS011;47393;38.758;-9.164;2023-03-11T11:35:58;6.25;;;3.15;;
61523;SDS011;47393;38.758;-9.164;2023-03-11T11:55:48;5.97;;;3.30;;
61523;SDS011;47393;38.758;-9.164;2023-03-11T11:57:51;5.45;;;3.33;;
61523;SDS011;47393;38.758;-9.164;2023-03-11T11:59:54;10.00;;;3.55;;
61523;SDS011;47393;38.758;-9.164;2023-03-11T12:02:01;9.93;;;3.55;;
61523;SDS011;47393;38.758;-9.164;2023-03-11T12:08:38;5.55;;;3.08;;
61523;SDS011;47393;38.758;-9.164;2023-03-11T12:17:28;4.70;;;2.67;;
61523;SDS011;47393;38.758;-9.164;2023-03-11T12:19:34;3.95;;;2.55;;
61523;SDS011;47393;38.758;-9.164;2023-03-11T12:28:21;9.07;;;2.97;;
61523;SDS011;47393;38.758;-9.164;2023-03-11T12:30:26;7.10;;;2.95;;
61523;SDS011;47393;38.758;-9.164;2023-03-11T12:32:35;3.60;;;2.63;;
61523;SDS011;47393;38.758;-9.164;2023-03-11T12:34:37;7.40;;;2.47;;
61523;SDS011;47393;38.758;-9.164;2023-03-11T12:36:38;4.88;;;2.63;;
61523;SDS011;47393;38.758;-9.164;2023-03-11T12:38:40;5.93;;;2.33;;
61523;SDS011;47393;38.758;-9.164;2023-03-11T12:43:15;5.53;;;2.60;;
61523;SDS011;47393;38.758;-9.164;2023-03-11T12:47:41;5.05;;;2.55;;
61523;SDS011;47393;38.758;-9.164;2023-03-11T12:49:52;6.55;;;2.83;;
61523;SDS011;47393;38.758;-9.164;2023-03-11T12:52:05;4.70;;;;;
61523;SDS011;47393;38.758;-9.164;2023-03-11T12:54:20;8.07;;;2.78;;
61523;SDS011;47393;38.758;-9.164;2023-03-11T12:56:36;11.70;;;3.50;;
61523;SDS011;47393;38.758;-9.164;2023-03-11T13:01:20;9.63;;;3.08;;
61523;SDS011;47393;38.758;-9.164;2023-03-11T13:07:47;6.97;;;2.92;;
61523;SDS011;47393;38.758;-9.164;2023-03-11T13:10:02;4.63;;;3.05;;
61523;SDS011;47393;38.758;-9.164;2023-03-11T13:12:30;7.10;;;2.80;;
61523;SDS011;47393;38.758;-9.164;2023-03-11T13:14:31;13.20;;;3.28;;
61523;SDS011;47393;38.758;-9.164;2023-03-11T13:16:36;3.80;;;2.83;;
61523;SDS011;47393;38.758;-9.164;2023-03-11T13:18:37;12.15;;;2.92;;
61523;SDS011;47393;38.758;-9.164;2023-03-11T13:24:54;5.65;;;1.48;;
61523;SDS011;47393;38.758;-9.164;2023-03-11T13:27:04;2.33;;;1.20;;
61523;SDS011;47393;38.758;-9.164;2023-03-11T13:31:49;1.10;;;1.10;;
61523;SDS011;47393;38.758;-9.164;2023-03-11T13:33:53;3.25;;;2.03;;
61523;SDS011;47393;38.758;-9.164;2023-03-11T13:36:01;7.20;;;2.47;;
61523;SDS011;47393;38.758;-9.164;2023-03-11T13:42:23;1.63;;;1.48;;
61523;SDS011;47393;38.758;-9.164;2023-03-11T13:44:30;5.93;;;2.22;;
61523;SDS011;47393;38.758;-9.164;2023-03-11T13:46:37;6.88;;;1.80;;
61523;SDS011;47393;38.758;-9.164;2023-03-11T13:48:42;2.53;;;1.65;;
61523;SDS011;47393;38.758;-9.164;2023-03-11T13:50:49;2.92;;;1.77;;
61523;SDS011;47393;38.758;-9.164;2023-03-11T13:52:57;9.68;;;2.00;;
61523;SDS011;47393;38.758;-9.164;2023-03-11T13:55:21;4.13;;;1.83;;
61523;SDS011;47393;38.758;-9.164;2023-03-11T13:57:22;6.78;;;1.67;;
61523;SDS011;47393;38.758;-9.164;2023-03-11T13:59:31;2.78;;;1.70;;
61523;SDS011;47393;38.758;-9.164;2023-03-11T14:01:33;2.95;;;1.80;;
61523;SDS011;47393;38.758;-9.164;2023-03-11T14:03:35;2.90;;;1.70;;
61523;SDS011;47393;38.758;-9.164;2023-03-11T14:06:00;2.20;;;1.80;;
61523;SDS011;47393;38.758;-9.164;2023-03-11T14:10:27;2.10;;;1.48;;
61523;SDS011;47393;38.758;-9.164;2023-03-11T14:12:31;2.90;;;1.63;;